Time;durP1;ratioP1;P1;durP2;ratioP2;P2;SDS_P1;SDS_P2;PMS_P1;PMS_P2;Temp;Humidity;BMP_temperature;BMP_pressure;BME280_temperature;BME280_humidity;BME280_pressure;Samples;Min_cycle;Max_cycle;Signal;HPM_P1;HPM_P2
2022/03/05 00:01:30;;;;;;;;;55.50;42.00;;;;;10.38;69.82;101125.59;5075775;28;45971;-77
2022/03/05 00:03:55;;;;;;;;;52.25;42.00;;;;;10.37;69.65;101120.44;5076215;28;45485;-77
2022/03/05 00:06:20;;;;;;;;;43.75;37.75;;;;;10.36;69.64;101103.06;5075828;28;45485;-78
2022/03/05 00:08:46;;;;;;;;;49.25;37.50;;;;;10.36;69.65;101117.03;5073605;28;45679;-77
2022/03/05 00:11:11;;;;;;;;;53.75;40.75;;;;;10.39;69.83;101118.59;5076010;28;45712;-79
2022/03/05 00:13:37;;;;;;;;;50.25;39.50;;;;;10.44;69.83;101122.59;5075856;28;45745;-80
2022/03/05 00:16:04;;;;;;;;;51.25;41.00;;;;;10.42;69.86;101124.47;5075949;28;45598;-78
2022/03/05 00:18:30;;;;;;;;;56.00;43.75;;;;;10.35;69.67;101109.25;5076154;28;46136;-78
2022/03/05 00:20:55;;;;;;;;;60.00;40.25;;;;;10.36;69.79;101100.47;5076209;28;45656;-79
2022/03/05 00:23:21;;;;;;;;;52.75;37.25;;;;;10.44;69.57;101100.81;5076122;28;45676;-78
2022/03/05 00:25:46;;;;;;;;;47.00;40.00;;;;;10.45;69.93;101097.25;5075519;28;46545;-79
2022/03/05 00:31:33;;;;;;;;;61.00;42.50;;;;;10.46;69.61;101105.03;5073611;28;45855;-79
2022/03/05 00:33:58;;;;;;;;;48.75;36.75;;;;;10.53;69.67;101105.47;5075790;28;45760;-79
2022/03/05 00:36:24;;;;;;;;;55.75;43.00;;;;;10.49;69.70;101103.97;5075297;28;45917;-78
2022/03/05 00:38:49;;;;;;;;;56.50;41.75;;;;;10.53;69.71;101101.06;5075253;28;46201;-78
2022/03/05 00:41:14;;;;;;;;;46.50;37.25;;;;;10.50;69.80;101111.75;5075611;28;45777;-79
2022/03/05 00:43:40;;;;;;;;;50.50;39.25;;;;;10.53;69.57;101106.31;5072579;28;45624;-77
2022/03/05 00:46:05;;;;;;;;;44.75;37.75;;;;;10.57;69.44;101116.59;5074908;28;47008;-78
2022/03/05 00:48:30;;;;;;;;;52.75;39.50;;;;;10.49;69.75;101102.19;5075213;28;45668;-77
2022/03/05 00:50:56;;;;;;;;;47.75;39.50;;;;;10.59;69.99;101112.09;5075210;28;45889;-77
2022/03/05 00:53:21;;;;;;;;;55.25;41.75;;;;;10.54;69.72;101104.53;5075209;28;45543;-78
2022/03/05 00:55:47;;;;;;;;;61.00;44.75;;;;;10.52;69.52;101090.72;5056527;28;48432;-78
2022/03/05 01:01:34;;;;;;;;;49.75;39.75;;;;;10.56;69.80;101097.44;5075024;28;45522;-79
2022/03/05 01:04:00;;;;;;;;;54.75;43.00;;;;;10.59;69.61;101099.00;5075325;28;45749;-80
2022/03/05 01:06:27;;;;;;;;;51.00;40.50;;;;;10.63;69.64;101105.75;5074762;28;45606;-79
2022/03/05 01:08:53;;;;;;;;;51.00;39.50;;;;;10.59;69.78;101093.75;5074921;28;46148;-78
2022/03/05 01:11:18;;;;;;;;;55.25;43.25;;;;;10.67;69.91;101104.59;5074763;28;45604;-78
2022/03/05 01:17:05;;;;;;;;;44.00;39.50;;;;;10.66;69.64;101093.28;5074476;28;45569;-79
2022/03/05 01:19:31;;;;;;;;;42.50;38.00;;;;;10.61;69.48;101084.88;5074559;28;46300;-79
2022/03/05 01:21:56;;;;;;;;;45.50;36.25;;;;;10.63;69.63;101093.50;5074860;28;45517;-77
2022/03/05 01:24:21;;;;;;;;;53.00;39.00;;;;;10.67;69.33;101102.81;5074980;28;45657;-78
2022/03/05 01:26:47;;;;;;;;;48.75;39.75;;;;;10.60;68.84;101090.19;5074353;28;46397;-78
2022/03/05 01:29:12;;;;;;;;;47.50;38.50;;;;;10.56;68.89;101076.47;5074646;28;45608;-77
2022/03/05 01:31:38;;;;;;;;;56.75;39.00;;;;;10.61;69.03;101089.28;5074351;28;45617;-79
2022/03/05 01:34:03;;;;;;;;;41.00;34.50;;;;;10.61;69.19;101082.25;5074839;28;45599;-79
2022/03/05 01:36:28;;;;;;;;;52.75;40.00;;;;;10.63;68.81;101088.25;5074555;28;45773;-77
2022/03/05 01:38:54;;;;;;;;;45.25;39.25;;;;;10.67;68.72;101088.88;5072170;28;46189;-78
2022/03/05 01:41:19;;;;;;;;;47.50;39.25;;;;;10.72;68.66;101099.91;5074546;28;45756;-79
2022/03/05 01:47:07;;;;;;;;;40.00;35.25;;;;;10.75;68.74;101103.16;5074063;28;46123;-78
2022/03/05 01:49:32;;;;;;;;;53.75;40.00;;;;;10.74;68.47;101095.44;5074388;28;45655;-79
2022/03/05 01:51:58;;;;;;;;;52.50;40.75;;;;;10.78;68.06;101104.75;5055952;28;45821;-79
2022/03/05 01:54:24;;;;;;;;;53.25;39.75;;;;;10.73;68.18;101091.13;5074217;28;45705;-78
2022/03/05 01:56:50;;;;;;;;;47.00;37.25;;;;;10.73;68.26;101091.97;5074295;28;46861;-78
2022/03/05 02:02:37;;;;;;;;;51.00;42.00;;;;;10.79;67.89;101103.84;5074221;28;45888;-78
2022/03/05 02:05:03;;;;;;;;;51.00;39.25;;;;;10.79;68.10;101109.91;5074118;28;45740;-77
2022/03/05 02:07:29;;;;;;;;;52.50;39.00;;;;;10.76;68.14;101097.00;5073956;28;45573;-78
2022/03/05 02:09:54;;;;;;;;;52.00;39.75;;;;;10.79;67.97;101104.69;5073954;28;45625;-78
2022/03/05 02:18:55;;;;;;;;;53.25;42.50;;;;;10.78;67.92;101096.91;5076887;28;45815;-78
2022/03/05 02:21:22;;;;;;;;;46.75;38.50;;;;;10.77;68.14;101096.06;5080677;28;46223;-78
2022/03/05 02:23:48;;;;;;;;;50.75;42.00;;;;;10.75;67.89;101094.47;5080696;28;45500;-78
2022/03/05 02:26:13;;;;;;;;;52.50;38.75;;;;;10.71;67.84;101080.72;5080493;28;45543;-78
2022/03/05 02:28:39;;;;;;;;;45.25;37.50;;;;;10.80;68.36;101102.88;5080648;28;45576;-78
2022/03/05 02:31:05;;;;;;;;;57.50;41.00;;;;;10.76;68.43;101099.63;5080234;28;46257;-79
2022/03/05 02:33:30;;;;;;;;;60.50;43.00;;;;;10.74;68.54;101088.38;5080517;28;45540;-77
2022/03/05 02:35:56;;;;;;;;;67.25;49.00;;;;;10.62;68.62;101075.25;5080584;28;45490;-78
2022/03/05 02:38:23;;;;;;;;;60.25;45.00;;;;;10.70;68.72;101091.28;5061770;28;46254;-78
2022/03/05 02:40:50;;;;;;;;;56.50;42.75;;;;;10.68;68.79;101096.66;5080404;28;46181;-78
2022/03/05 02:43:16;;;;;;;;;55.75;40.75;;;;;10.62;68.79;101083.94;5080490;28;45838;-78
2022/03/05 02:45:42;;;;;;;;;54.50;40.00;;;;;10.55;68.88;101069.53;5080637;28;45533;-79
2022/03/05 02:48:11;;;;;;;;;47.50;38.50;;;;;10.64;69.07;101089.91;5080369;28;46721;-78
2022/03/05 02:50:37;;;;;;;;;57.00;41.75;;;;;10.65;69.15;101094.22;5080444;28;46163;-79
2022/03/05 02:53:03;;;;;;;;;52.00;40.25;;;;;10.64;69.12;101086.44;5080026;28;45759;-79
2022/03/05 02:55:31;;;;;;;;;55.50;41.25;;;;;10.52;69.01;101065.34;5080248;28;45554;-79
2022/03/05 02:57:57;;;;;;;;;56.25;42.25;;;;;10.62;68.94;101078.69;5080372;28;45668;-77
2022/03/05 03:03:44;;;;;;;;;53.75;40.25;;;;;10.57;68.96;101065.06;5080095;28;45655;-77
2022/03/05 03:06:10;;;;;;;;;49.25;42.25;;;;;10.56;69.13;101076.47;5080263;28;45652;-78
2022/03/05 03:08:35;;;;;;;;;51.50;37.50;;;;;10.56;69.07;101073.84;5080183;28;46287;-79
2022/03/05 03:11:01;;;;;;;;;57.75;44.00;;;;;10.58;69.30;101063.28;5080152;28;45968;-77
2022/03/05 03:13:26;;;;;;;;;53.00;41.75;;;;;10.59;69.38;101070.19;5080231;28;45639;-78
2022/03/05 03:15:51;;;;;;;;;51.25;40.25;;;;;10.59;69.46;101065.78;5080080;28;45447;-78
2022/03/05 03:18:17;;;;;;;;;52.25;40.25;;;;;10.48;69.14;101049.91;5044963;28;46648;-78
2022/03/05 03:20:43;;;;;;;;;46.00;40.25;;;;;10.59;69.17;101070.19;5061457;28;47044;-78
2022/03/05 03:23:08;;;;;;;;;40.75;36.50;;;;;10.59;69.03;101070.19;5080094;28;45604;-78
2022/03/05 03:25:34;;;;;;;;;53.50;40.00;;;;;10.54;68.64;101062.63;5079951;28;45480;-78
2022/03/05 03:27:59;;;;;;;;;44.50;37.50;;;;;10.57;68.60;101072.06;5079905;28;46018;-77
2022/03/05 03:34:13;;;;;;;;;46.00;37.50;;;;;10.59;68.34;101067.56;5075258;28;45867;-77
2022/03/05 03:36:38;;;;;;;;;50.75;38.75;;;;;10.60;68.30;101069.25;5076457;28;45631;-78
2022/03/05 03:39:04;;;;;;;;;43.50;39.00;;;;;10.59;68.20;101070.19;5076490;28;46353;-78
2022/03/05 03:41:29;;;;;;;;;52.25;41.00;;;;;10.55;67.78;101066.91;5076353;28;45699;-77
2022/03/05 03:43:54;;;;;;;;;39.75;33.75;;;;;10.53;68.04;101066.16;5076246;28;45546;-78
2022/03/05 03:46:20;;;;;;;;;47.75;39.75;;;;;10.57;67.86;101077.31;5057386;28;45756;-78
2022/03/05 03:48:45;;;;;;;;;48.75;38.75;;;;;10.51;67.83;101065.44;5076440;28;45669;-77
2022/03/05 03:51:11;;;;;;;;;45.75;36.00;;;;;10.49;67.68;101073.38;5076568;28;46473;-78
2022/03/05 03:53:36;;;;;;;;;43.50;37.00;;;;;10.48;67.42;101060.38;5076875;28;45646;-78
2022/03/05 03:56:02;;;;;;;;;46.25;36.25;;;;;10.44;67.58;101064.13;5077048;28;45815;-79
2022/03/05 03:58:27;;;;;;;;;43.75;38.00;;;;;10.51;67.36;101073.31;5076266;28;45663;-79
2022/03/05 04:04:14;;;;;;;;;40.00;33.25;;;;;10.50;67.20;101075.06;5075936;28;45855;-78
2022/03/05 04:09:23;;;;;;;;;44.75;36.00;;;;;10.49;67.01;101068.16;5075735;28;45979;-77
2022/03/05 04:11:49;;;;;;;;;39.75;32.00;;;;;10.53;67.06;101074.03;5075919;28;45548;-78
2022/03/05 04:14:14;;;;;;;;;42.25;34.25;;;;;10.52;67.06;101075.84;5076074;28;45603;-77
2022/03/05 04:16:39;;;;;;;;;42.50;36.50;;;;;10.57;67.13;101065.06;5075729;28;45668;-78
2022/03/05 04:19:05;;;;;;;;;44.25;36.25;;;;;10.58;67.09;101074.56;5075648;28;46496;-79
2022/03/05 04:21:30;;;;;;;;;51.50;38.25;;;;;10.58;66.99;101076.38;5075813;28;45542;-77
2022/03/05 04:23:55;;;;;;;;;37.75;34.00;;;;;10.58;67.01;101066.72;5075890;28;45603;-78
2022/03/05 04:26:21;;;;;;;;;42.75;36.75;;;;;10.59;67.02;101068.41;5075607;28;45698;-79
2022/03/05 04:28:46;;;;;;;;;41.75;37.25;;;;;10.53;67.24;101053.91;5075580;28;45647;-77
2022/03/05 04:34:33;;;;;;;;;40.00;35.00;;;;;10.65;67.01;101077.66;5073978;28;45616;-78
2022/03/05 04:36:59;;;;;;;;;39.00;32.25;;;;;10.62;66.81;101070.00;5075795;28;45756;-78
2022/03/05 04:39:24;;;;;;;;;37.75;35.50;;;;;10.57;66.97;101062.44;5075513;28;45569;-77
2022/03/05 04:41:49;;;;;;;;;44.75;36.75;;;;;10.56;66.75;101073.84;5075078;28;46387;-77
2022/03/05 04:44:15;;;;;;;;;42.50;35.00;;;;;10.59;66.73;101076.25;5075497;28;45800;-77
2022/03/05 04:50:04;;;;;;;;;39.50;34.00;;;;;10.59;66.71;101083.28;5074923;28;46021;-79
2022/03/05 04:52:30;;;;;;;;;34.75;31.25;;;;;10.51;66.75;101079.38;5075152;28;46202;-80
2022/03/05 04:54:55;;;;;;;;;37.75;33.00;;;;;10.49;66.47;101076.00;5075152;28;45831;-77
2022/03/05 04:57:21;;;;;;;;;41.25;33.00;;;;;10.51;66.64;101082.00;5074886;28;45618;-79
2022/03/05 04:59:47;;;;;;;;;43.50;37.00;;;;;10.58;66.77;101092.09;5075158;28;45571;-79
2022/03/05 05:02:12;;;;;;;;;50.25;35.00;;;;;10.50;66.84;101077.69;5075125;28;45586;-78
2022/03/05 05:04:38;;;;;;;;;39.50;34.50;;;;;10.46;66.71;101065.72;5074989;28;45677;-78
2022/03/05 05:07:03;;;;;;;;;44.50;35.50;;;;;10.53;66.89;101089.75;5075098;28;45463;-77
2022/03/05 05:09:30;;;;;;;;;41.50;33.25;;;;;10.52;66.96;101083.69;5074997;28;46602;-78
2022/03/05 05:11:55;;;;;;;;;42.00;33.25;;;;;10.47;66.62;101082.28;5075040;28;46209;-77
2022/03/05 05:14:21;;;;;;;;;41.00;37.50;;;;;10.48;66.47;101090.03;5074874;28;45458;-77
2022/03/05 05:20:09;;;;;;;;;42.50;36.75;;;;;10.52;66.56;101093.31;5074558;28;45589;-78
2022/03/05 05:22:35;;;;;;;;;37.75;29.75;;;;;10.52;66.62;101093.31;5075133;28;46152;-77
2022/03/05 05:25:01;;;;;;;;;42.50;33.75;;;;;10.54;66.25;101101.91;5056360;28;45968;-77
2022/03/05 05:27:27;;;;;;;;;39.75;32.00;;;;;10.51;66.60;101096.88;5075055;28;45691;-77
2022/03/05 05:29:52;;;;;;;;;42.25;33.50;;;;;10.46;66.37;101081.44;5074812;28;45516;-77
2022/03/05 05:35:40;;;;;;;;;38.75;34.00;;;;;10.48;66.13;101094.44;5072328;28;45694;-79
2022/03/05 05:38:05;;;;;;;;;40.25;35.75;;;;;10.51;66.26;101102.97;5074849;28;45501;-78
2022/03/05 05:40:30;;;;;;;;;49.50;39.25;;;;;10.43;66.39;101089.47;5074632;28;46523;-78
2022/03/05 05:42:56;;;;;;;;;31.50;28.25;;;;;10.45;66.19;101102.50;5073233;28;46998;-79
2022/03/05 05:45:21;;;;;;;;;44.00;37.00;;;;;10.42;66.30;101105.28;5074200;28;45710;-79
2022/03/05 05:47:47;;;;;;;;;40.75;34.50;;;;;10.45;66.70;101113.81;5074706;28;45891;-79
2022/03/05 05:50:12;;;;;;;;;43.75;37.00;;;;;10.39;66.63;101108.13;5074459;28;45626;-79
2022/03/05 05:52:39;;;;;;;;;40.50;34.50;;;;;10.39;66.43;101106.34;5073772;28;46679;-78
2022/03/05 05:55:05;;;;;;;;;44.00;36.75;;;;;10.45;66.65;101119.06;5072810;28;45781;-76
2022/03/05 05:57:30;;;;;;;;;44.25;36.25;;;;;10.45;66.67;101120.84;5073702;28;45617;-79
2022/03/05 05:59:56;;;;;;;;;43.50;34.25;;;;;10.42;66.48;101118.38;5073334;28;45612;-79
2022/03/05 06:05:43;;;;;;;;;50.25;39.25;;;;;10.41;66.75;101120.19;5073066;28;45656;-78
2022/03/05 06:08:08;;;;;;;;;46.50;36.75;;;;;10.43;66.56;101122.69;5073471;28;45588;-79
2022/03/05 06:10:34;;;;;;;;;48.00;37.75;;;;;10.43;66.48;101125.31;5073157;28;45717;-78
2022/03/05 06:12:59;;;;;;;;;40.50;35.25;;;;;10.39;66.73;101122.06;5073044;28;46352;-78
2022/03/05 06:15:25;;;;;;;;;43.25;35.00;;;;;10.40;66.59;101118.50;5072382;28;45731;-78
2022/03/05 06:21:12;;;;;;;;;37.25;34.25;;;;;10.39;66.93;101122.06;5070166;28;45754;-78
2022/03/05 06:23:37;;;;;;;;;37.75;32.25;;;;;10.37;66.75;101123.06;5055083;28;46929;-79
2022/03/05 06:26:04;;;;;;;;;46.00;36.25;;;;;10.36;66.71;101119.63;5072352;28;45604;-78
2022/03/05 06:28:29;;;;;;;;;40.25;31.00;;;;;10.34;66.73;101111.03;5072604;28;45633;-78
2022/03/05 06:30:55;;;;;;;;;32.75;30.25;;;;;10.39;66.96;101118.59;5054506;28;48149;-78
2022/03/05 06:33:20;;;;;;;;;39.75;31.50;;;;;10.41;66.87;101117.56;5072478;28;46202;-77
2022/03/05 06:35:46;;;;;;;;;34.25;30.25;;;;;10.46;66.86;101125.97;5072163;28;45604;-78
2022/03/05 06:38:11;;;;;;;;;35.00;34.00;;;;;10.42;67.16;101118.38;5073290;28;45539;-77
2022/03/05 06:40:37;;;;;;;;;35.25;31.00;;;;;10.42;67.30;101121.84;5072929;28;45598;-77
2022/03/05 06:43:02;;;;;;;;;38.00;33.50;;;;;10.35;67.00;101106.63;5072795;28;46286;-78
2022/03/05 06:45:28;;;;;;;;;33.75;31.25;;;;;10.44;67.04;101132.25;5072507;28;45666;-78
2022/03/05 06:51:15;;;;;;;;;45.75;35.25;;;;;10.43;67.03;101136.63;5072462;28;45607;-78
2022/03/05 06:53:41;;;;;;;;;32.75;27.75;;;;;10.41;67.21;101133.28;5072801;28;45685;-78
2022/03/05 06:56:06;;;;;;;;;37.25;33.50;;;;;10.45;67.11;101144.41;5072702;28;45756;-78
2022/03/05 06:58:32;;;;;;;;;38.50;33.00;;;;;10.44;67.05;101147.97;5072759;28;45548;-78
2022/03/05 07:00:57;;;;;;;;;32.25;30.75;;;;;10.41;67.15;101146.38;5072888;28;46198;-77
2022/03/05 07:06:44;;;;;;;;;41.50;32.50;;;;;10.41;67.02;101151.63;5076016;28;45683;-78
2022/03/05 07:09:10;;;;;;;;;35.25;31.50;;;;;10.41;66.78;101153.41;5076402;28;45802;-78
2022/03/05 07:11:35;;;;;;;;;39.00;29.75;;;;;10.47;66.73;101150.41;5075813;28;45845;-77
2022/03/05 07:14:01;;;;;;;;;46.00;35.50;;;;;10.47;66.88;101156.47;5075588;28;45593;-78
2022/03/05 07:16:26;;;;;;;;;39.75;35.50;;;;;10.46;66.81;101156.56;5075819;28;46141;-78
2022/03/05 07:18:51;;;;;;;;;41.00;31.00;;;;;10.49;66.80;101164.22;5076366;28;45854;-77
2022/03/05 07:21:17;;;;;;;;;41.00;31.25;;;;;10.45;66.75;101153.09;5075813;28;46708;-78
2022/03/05 07:23:42;;;;;;;;;46.00;34.00;;;;;10.50;66.47;101164.16;5075911;28;45787;-77
2022/03/05 07:26:08;;;;;;;;;46.00;35.00;;;;;10.46;66.64;101162.66;5075819;28;45644;-77
2022/03/05 07:28:33;;;;;;;;;39.50;34.25;;;;;10.52;66.48;101161.44;5076050;28;45536;-78
2022/03/05 07:30:59;;;;;;;;;40.50;32.75;;;;;10.53;66.73;101168.34;5076733;28;46640;-78
2022/03/05 07:36:46;;;;;;;;;41.25;34.50;;;;;10.53;66.79;101171.81;5090672;28;45621;-78
2022/03/05 07:39:12;;;;;;;;;47.75;36.50;;;;;10.55;66.67;101182.19;5093658;28;45149;-78
2022/03/05 07:41:37;;;;;;;;;38.25;34.25;;;;;10.56;66.61;101172.56;5077357;28;47681;-78
2022/03/05 07:44:04;;;;;;;;;36.25;32.75;;;;;10.55;66.80;101173.50;5094604;28;45615;-77
2022/03/05 07:46:31;;;;;;;;;50.50;38.00;;;;;10.53;66.71;101169.19;5083967;28;45737;-77
2022/03/05 07:52:19;;;;;;;;;19.00;11.25;;;;;10.63;66.60;101189.59;5082657;28;46168;-79
2022/03/05 07:54:44;;;;;;;;;38.00;31.50;;;;;10.64;66.71;101188.63;5082886;28;45658;-79
2022/03/05 07:57:09;;;;;;;;;39.00;33.50;;;;;10.66;66.55;101192.84;5078227;28;45579;-79
2022/03/05 07:59:35;;;;;;;;;41.50;34.00;;;;;10.67;66.69;101191.91;5077479;28;45947;-79
2022/03/05 08:02:00;;;;;;;;;44.25;39.00;;;;;10.64;66.58;101181.63;5075528;28;45583;-79
2022/03/05 08:04:25;;;;;;;;;45.25;34.25;;;;;10.65;66.51;101187.69;5074969;28;46160;-79
2022/03/05 08:06:53;;;;;;;;;40.25;36.50;;;;;10.59;66.49;101181.06;5075271;28;45901;-78
2022/03/05 08:09:18;;;;;;;;;46.75;37.25;;;;;10.61;66.69;101180.97;5075293;28;45585;-79
2022/03/05 08:11:44;;;;;;;;;43.75;36.25;;;;;10.71;66.51;101203.88;5072177;28;45752;-79
2022/03/05 08:14:09;;;;;;;;;42.75;36.00;;;;;10.69;66.60;101194.47;5074443;28;46146;-78
2022/03/05 08:16:37;;;;;;;;;48.50;36.25;;;;;10.70;66.30;101194.34;5073827;28;45860;-79
2022/03/05 08:22:24;;;;;;;;;44.25;37.00;;;;;10.75;66.33;101199.28;5074738;28;45701;-77
2022/03/05 08:25:06;;;;;;;;;51.25;38.50;;;;;10.77;66.50;101207.91;5055683;28;45834;-78
2022/03/05 08:27:31;;;;;;;;;45.50;37.00;;;;;10.78;66.48;101206.97;5075056;28;45758;-78
2022/03/05 08:29:56;;;;;;;;;53.50;37.00;;;;;10.75;66.28;101194.03;5074500;28;45903;-78
2022/03/05 08:32:22;;;;;;;;;41.75;36.25;;;;;10.78;66.19;101199.97;5074812;28;46820;-79
2022/03/05 08:34:47;;;;;;;;;44.00;38.25;;;;;10.80;66.21;101200.69;5074008;28;46299;-78
2022/03/05 08:37:14;;;;;;;;;49.50;36.00;;;;;10.75;66.10;101184.41;5074148;28;46136;-79
2022/03/05 08:43:16;;;;;;;;;52.00;37.50;;;;;10.79;65.89;101187.69;4894709;28;46569;-81
2022/03/05 08:45:41;;;;;;;;;44.75;34.75;;;;;10.89;65.84;101194.88;4894547;29;45935;-82
2022/03/05 08:57:35;;;;;;;;;42.25;36.25;;;;;11.06;65.67;101206.94;5105671;22;45819;-79
2022/03/05 09:00:03;;;;;;;;;54.00;35.75;;;;;11.04;65.45;101185.19;5071016;27;45802;-79
2022/03/05 09:02:29;;;;;;;;;43.50;36.50;;;;;11.14;65.60;101207.28;5069346;27;46045;-81
2022/03/05 09:04:54;;;;;;;;;47.75;38.00;;;;;11.19;65.51;101204.34;5069856;28;45715;-81
2022/03/05 09:07:20;;;;;;;;;40.00;33.25;;;;;11.22;65.36;101191.91;5069311;27;46313;-81
2022/03/05 09:09:45;;;;;;;;;42.50;35.75;;;;;11.19;65.44;101186.84;5069206;28;46110;-82
2022/03/05 09:12:11;;;;;;;;;46.50;38.00;;;;;11.22;65.20;101184.03;5050900;28;45743;-81
2022/03/05 09:14:36;;;;;;;;;44.50;37.50;;;;;11.32;65.12;101195.63;5062576;27;45791;-81
2022/03/05 09:17:02;;;;;;;;;43.50;36.50;;;;;11.36;64.98;101189.22;5069715;27;46043;-81
2022/03/05 09:19:27;;;;;;;;;43.00;36.25;;;;;11.47;65.01;101199.00;5071215;27;45756;-82
2022/03/05 09:21:53;;;;;;;;;48.75;39.00;;;;;11.52;64.82;101203.97;5073734;27;45788;-82
2022/03/05 09:24:19;;;;;;;;;39.50;36.00;;;;;11.51;64.64;101194.41;5071461;27;46748;-80
2022/03/05 09:26:44;;;;;;;;;44.00;35.00;;;;;11.51;64.30;101181.28;5068779;28;46090;-81
2022/03/05 09:29:09;;;;;;;;;42.75;33.50;;;;;11.66;64.43;101206.53;5062333;28;46002;-81
2022/03/05 09:31:35;;;;;;;;;42.25;36.25;;;;;11.63;64.26;101202.31;5067302;28;45688;-82
2022/03/05 09:34:00;;;;;;;;;42.25;35.75;;;;;11.69;64.13;101196.66;5068717;28;46846;-81
2022/03/05 09:36:26;;;;;;;;;53.25;38.50;;;;;11.78;64.15;101197.84;5069609;28;45969;-81
2022/03/05 09:38:51;;;;;;;;;45.75;34.50;;;;;11.84;63.95;101194.81;5051592;28;46716;-81
2022/03/05 09:41:17;;;;;;;;;41.75;37.00;;;;;11.95;63.85;101201.97;5068021;28;45912;-81
2022/03/05 09:43:43;;;;;;;;;45.00;34.00;;;;;11.97;63.91;101186.97;5066323;27;46822;-80
2022/03/05 09:46:09;;;;;;;;;47.25;37.75;;;;;12.09;63.35;101199.28;5069025;28;46299;-81
2022/03/05 09:48:39;;;;;;;;;43.50;36.50;;;;;12.21;63.35;101201.06;5067121;27;45790;-80
2022/03/05 09:51:04;;;;;;;;;40.75;35.00;;;;;12.27;63.02;101200.63;5070043;28;46221;-80
2022/03/05 09:53:31;;;;;;;;;45.25;37.50;;;;;12.32;62.67;101205.56;5045452;28;47761;-81
2022/03/05 09:55:58;;;;;;;;;46.00;36.50;;;;;12.35;62.40;101193.09;5061765;28;45698;-81
2022/03/05 09:58:24;;;;;;;;;46.00;34.00;;;;;12.43;62.08;101206.50;5053015;27;45996;-80
2022/03/05 10:00:52;;;;;;;;;40.50;35.00;;;;;12.42;62.24;101198.72;5071895;27;45774;-80
2022/03/05 10:03:18;;;;;;;;;37.50;33.00;;;;;12.46;61.56;101194.97;5070489;27;46862;-81
2022/03/05 10:05:44;;;;;;;;;53.00;39.50;;;;;12.49;61.11;101202.63;5066158;27;45874;-85
2022/03/05 10:08:20;;;;;;;;;42.50;35.75;;;;;12.42;61.20;101194.31;5063164;28;45895;-79
2022/03/05 10:10:53;;;;;;;;;47.50;37.50;;;;;12.41;61.04;101184.78;5068168;28;45725;-79
2022/03/05 10:13:36;;;;;;;;;46.25;38.25;;;;;12.51;60.27;101195.50;5066087;28;46947;-80
2022/03/05 10:16:24;;;;;;;;;39.50;36.00;;;;;12.52;60.20;101200.63;5060567;27;46331;-80
2022/03/05 10:18:53;;;;;;;;;44.00;35.25;;;;;12.53;59.29;101201.47;5062856;27;46006;-76
2022/03/05 10:21:27;;;;;;;;;47.75;38.00;;;;;12.47;59.65;101196.66;5064863;28;46612;-79
2022/03/05 10:24:07;;;;;;;;;42.00;37.00;;;;;12.53;59.46;101214.59;5050084;28;48255;-77
2022/03/05 10:26:50;;;;;;;;;45.00;35.75;;;;;12.50;58.82;101204.31;5069613;27;46555;-77
2022/03/05 10:29:24;;;;;;;;;43.50;37.00;;;;;12.49;58.20;101202.63;5058335;28;46098;-75
2022/03/05 10:31:58;;;;;;;;;48.25;38.75;;;;;12.47;58.11;101200.09;5064304;27;45747;-82
2022/03/05 10:34:23;;;;;;;;;51.50;40.75;;;;;12.46;57.83;101194.97;5051090;28;48073;-79
2022/03/05 10:37:03;;;;;;;;;44.50;37.50;;;;;12.54;58.29;101209.25;5068253;27;45861;-79
2022/03/05 10:39:29;;;;;;;;;43.50;38.50;;;;;12.55;58.64;101202.19;5052526;28;45988;-80
2022/03/05 10:41:55;;;;;;;;;52.75;41.25;;;;;12.58;58.73;101202.81;5076476;28;45809;-79
2022/03/05 10:44:21;;;;;;;;;47.00;38.50;;;;;12.63;58.71;101199.06;5078627;27;46811;-80
2022/03/05 10:46:53;;;;;;;;;47.50;37.50;;;;;12.69;58.59;101204.69;5081161;27;46324;-79
2022/03/05 10:49:25;;;;;;;;;49.50;38.50;;;;;12.74;58.52;101197.31;5077648;27;45754;-78
2022/03/05 10:52:05;;;;;;;;;54.25;40.75;;;;;12.74;58.44;101193.88;5077291;27;45582;-79
2022/03/05 10:54:40;;;;;;;;;50.50;38.25;;;;;12.81;58.53;101200.38;5058423;28;48341;-79
2022/03/05 10:57:07;;;;;;;;;49.00;40.75;;;;;12.83;58.54;101203.72;5078659;27;46198;-81
2022/03/05 10:59:39;;;;;;;;;48.00;38.75;;;;;12.81;58.62;101195.94;5087657;27;46169;-80
2022/03/05 11:02:10;;;;;;;;;48.00;38.50;;;;;12.77;58.29;101186.59;5077339;28;45875;-84
2022/03/05 11:04:37;;;;;;;;;52.00;41.00;;;;;12.82;58.08;101189.75;5054932;28;46723;-84
2022/03/05 11:07:03;;;;;;;;;50.50;40.50;;;;;12.75;58.03;101191.13;5077511;28;46150;-83
2022/03/05 11:09:32;;;;;;;;;49.25;38.50;;;;;12.74;57.92;101189.44;5078595;28;45633;-76
2022/03/05 11:12:00;;;;;;;;;48.00;40.25;;;;;12.77;58.10;101185.75;5076952;27;45747;-79
2022/03/05 11:14:27;;;;;;;;;54.25;40.50;;;;;12.77;57.77;101199.75;5076798;28;45844;-79
2022/03/05 11:16:52;;;;;;;;;49.50;39.75;;;;;12.77;57.32;101193.66;5059745;28;47344;-83
2022/03/05 11:19:18;;;;;;;;;43.00;35.25;;;;;12.80;57.28;101210.03;5077417;28;45749;-82
2022/03/05 11:21:43;;;;;;;;;53.00;41.75;;;;;12.70;56.26;101189.75;5071031;28;45804;-82
2022/03/05 11:24:14;;;;;;;;;47.50;40.00;;;;;12.75;56.72;101200.78;5057953;27;48256;-80
2022/03/05 11:26:40;;;;;;;;;54.00;43.25;;;;;12.65;57.14;101182.19;5073268;27;47422;-77
2022/03/05 11:29:06;;;;;;;;;46.75;37.25;;;;;12.63;56.88;101178.88;5071260;28;46606;-79
2022/03/05 11:31:33;;;;;;;;;50.00;39.25;;;;;12.72;56.61;101193.13;5073427;28;46070;-82
2022/03/05 11:34:19;;;;;;;;;54.75;44.50;;;;;12.81;56.43;101203.84;5073458;28;46393;-82
2022/03/05 11:36:51;;;;;;;;;48.75;38.75;;;;;12.81;56.40;101198.56;5062361;28;46373;-80
2022/03/05 11:39:29;;;;;;;;;45.75;38.75;;;;;12.89;55.23;101203.31;5066485;28;45517;-78
2022/03/05 11:42:05;;;;;;;;;46.00;37.00;;;;;12.92;54.54;101193.41;5076041;27;45740;-83
2022/03/05 11:44:41;;;;;;;;;51.25;41.00;;;;;12.99;54.07;101199.91;5075562;27;45779;-81
2022/03/05 11:47:18;;;;;;;;;53.25;40.75;;;;;13.02;54.78;101197.03;5083191;27;46360;-75
2022/03/05 11:49:59;;;;;;;;;52.00;42.00;;;;;13.08;55.11;101195.75;5076412;28;45949;-82
2022/03/05 11:52:39;;;;;;;;;49.00;39.75;;;;;13.13;55.28;101193.66;5073801;28;45550;-79
2022/03/05 11:55:10;;;;;;;;;56.00;43.00;;;;;13.17;55.16;101191.69;5077476;27;46247;-81
2022/03/05 11:57:38;;;;;;;;;50.75;40.00;;;;;13.18;54.41;101196.81;5058998;28;45610;-83
2022/03/05 12:00:05;;;;;;;;;52.00;42.50;;;;;13.19;54.43;101182.72;5058300;28;45665;-77
2022/03/05 12:02:46;;;;;;;;;53.50;41.50;;;;;13.27;54.22;101188.25;5040544;28;45568;-81
2022/03/05 12:05:33;;;;;;;;;52.25;41.50;;;;;13.29;53.96;101194.25;5057181;28;45830;-81
2022/03/05 12:07:59;;;;;;;;;54.75;41.00;;;;;13.25;54.13;101178.78;5056759;28;45593;-79
2022/03/05 12:10:25;;;;;;;;;46.50;40.00;;;;;13.24;53.87;101172.69;5056788;28;45558;-81
2022/03/05 12:12:54;;;;;;;;;52.00;40.25;;;;;13.26;54.04;101168.16;5056310;28;45834;-81
2022/03/05 12:15:37;;;;;;;;;52.25;41.00;;;;;13.37;54.43;101189.28;5056319;28;46964;-84
2022/03/05 12:18:04;;;;;;;;;57.25;40.75;;;;;13.38;53.43;101184.84;5056270;28;46185;-82
2022/03/05 12:20:34;;;;;;;;;53.50;41.75;;;;;13.35;53.29;101167.47;5056167;28;45911;-83
2022/03/05 12:23:11;;;;;;;;;51.25;41.00;;;;;13.40;53.19;101169.75;5054335;28;45626;-81
2022/03/05 12:25:39;;;;;;;;;50.00;38.75;;;;;13.43;52.81;101174.81;5055749;28;45674;-77
2022/03/05 12:28:12;;;;;;;;;47.25;39.75;;;;;13.48;53.38;101180.59;5053472;28;46320;-76
2022/03/05 12:30:38;;;;;;;;;50.50;42.50;;;;;13.42;53.31;101168.72;5054921;28;45611;-79
2022/03/05 12:33:06;;;;;;;;;52.50;39.25;;;;;13.53;53.11;101182.88;5054870;28;45440;-80
2022/03/05 12:35:32;;;;;;;;;56.00;44.00;;;;;13.56;53.06;101180.00;5054798;28;46705;-79